Sarah Desgagnes — XJAB — position and weather

sailwx.info

Track history (hours):
 
Tides and Currents Weather Stations Pressure Air Temp Water Temp Dewpoint Dewpoint Depression Visibility Wind Speed Wind Dir Waves Ship Positions

Sarah Desgagnes

Last reported at 2017-Jan-21 19:00 UTC. Time now 2017-Jan-21 19:43 UTC.
Position N 45°54' W 059°30'.

Length 147 m; draft 5.5 m.

Type: Ship. MMSI: 316012308.

Wind from 310 at 15 knots

Barometer 1004.3 mb
Air temperature -0.3 ° C
Dewpoint -0.7 ° C
Water temperature 3.1 ° C

Date/timePositionNaut miles runAvg speedWind from/ knotsBaromVisibWave heightAir tempDewpointWater temp
2017-Jan-21 19:00N 45°54' W 059°30'2019.8 310 / 151004.3 -0.3-0.7 3.1
2017-Jan-21 18:00N 46°12' W 059°42'1010.2 310 / 151004.6 -0.3-0.7 2.8
2017-Jan-21 17:00N 46°18' W 059°54'1413.8 300 / 161005.3 -0.7-1.4 2.4
2017-Jan-21 16:00N 46°12' W 060°12'6 6.0 290 / 131005.8 -0.5-1.3 1.8
2017-Jan-21 15:00N 46°06' W 060°12'0 0.0 310 / 101007.6 -0.4-0.5
2017-Jan-21 14:00N 46°06' W 060°12'0 0.0 290 / 71007.8 -0.8-0.9
2017-Jan-21 13:00N 46°06' W 060°12'0 0.0 340 / 91008.1 -0.3-1.5
2017-Jan-21 12:00N 46°06' W 060°12'0 0.0 340 / 71008.2 -0.5-1.0
2017-Jan-21 11:00N 46°06' W 060°12'0 0.0 320 / 81008.7 -1.3-1.6
2017-Jan-21 10:00N 46°06' W 060°12'0 0.0 320 / 91008.8 -1.5-2.0
2017-Jan-21 08:00N 46°06' W 060°12'0 0.0 310 / 51009.3 -2.5-2.6
2017-Jan-21 07:00N 46°06' W 060°12'0 0.0 310 / 71009.6 -2.5-2.6
2017-Jan-21 06:00N 46°06' W 060°12'0 0.0 1009.7 -2.7-2.7
2017-Jan-21 05:00N 46°06' W 060°12'0 0.0 310 / 51009.9 -2.4-2.4
2017-Jan-21 04:00N 46°06' W 060°12'0 0.0 360 / 41010.3 -1.5-1.6
2017-Jan-21 03:00N 46°06' W 060°12'0 0.0 010 / 41011.3 -0.9-1.0
2017-Jan-21 02:00N 46°06' W 060°12'0 0.0 020 / 51011.5 -1.0-1.1
2017-Jan-21 00:00N 46°06' W 060°12'0 0.0 360 / 41012.7 -1.0-1.1
2017-Jan-20 23:00N 46°06' W 060°12'0 0.0 020 / 41012.7 -0.5-0.6
2017-Jan-20 22:00N 46°06' W 060°12'0 0.0 010 / 31012.6 -0.4-0.4
2017-Jan-20 21:00N 46°06' W 060°12'0 0.0 070 / 21012.6 -0.0-0.0
2017-Jan-20 20:00N 46°06' W 060°12'0 0.0 070 / 31012.7 0.1 0.1
2017-Jan-20 19:00N 46°06' W 060°12'0 0.0 070 / 21012.2 0.3 0.3
2017-Jan-20 18:00N 46°06' W 060°12'0 0.0 120 / 41012.0 0.8 0.8
2017-Jan-20 17:00N 46°06' W 060°12'0 0.0 130 / 41012.1 1.4 1.4
2017-Jan-20 16:00N 46°06' W 060°12'0 0.0 130 / 41012.4 1.6 1.7
2017-Jan-20 15:00N 46°06' W 060°12'0 0.0 120 / 61012.6 1.2 1.3
2017-Jan-20 14:00N 46°06' W 060°12'6 6.0 120 / 31012.6 0.7 0.8
2017-Jan-20 13:00N 46°12' W 060°12'0 0.0 180 / 41012.2 0.1 0.2 2.5
2017-Jan-20 12:00N 46°12' W 060°12'7 7.3 070 / 31011.9 -0.0 0.1 2.7
2017-Jan-20 11:00N 46°18' W 060°06'1312.7 110 / 41011.7 -0.0 0.1 2.7
2017-Jan-20 10:00N 46°30' W 060°12'1212.0 100 / 91011.8 0.1 0.2 2.7
2017-Jan-20 09:00N 46°42' W 060°12'1212.0 110 / 101011.9 0.1 0.1 2.8
2017-Jan-20 08:00N 46°54' W 060°12'1312.7 130 / 101012.2 -0.0 0.1 2.5
2017-Jan-20 07:00N 47°06' W 060°18'1312.7 160 / 101012.6 -0.0 0.1 2.1
2017-Jan-20 06:00N 47°18' W 060°24'7 7.2 160 / 161012.1 -0.1-0.1 2.2
2017-Jan-20 05:00N 47°24' W 060°30'1414.5 160 / 181012.1 -0.1-0.1 2.2
2017-Jan-20 04:00N 47°36' W 060°42'8 8.1 190 / 171012.5 -0.4-0.4 2.1
2017-Jan-20 03:00N 47°36' W 060°54'1413.5 170 / 151012.9 -0.5-0.5 1.9
2017-Jan-20 02:00N 47°42' W 061°12'1212.1 170 / 161012.9 -0.9-0.9 1.6
2017-Jan-20 01:00N 47°42' W 061°30'1413.5 170 / 171012.8 -1.3-1.3 1.7
2017-Jan-20 00:00N 47°48' W 061°48'1010.0 180 / 221012.4 -1.3-1.2 2.1
2017-Jan-19 23:00N 47°54' W 062°00'1313.5 180 / 221012.2 -1.2-1.2 2.0
2017-Jan-19 22:00N 48°00' W 062°18'1313.4 190 / 221012.0 -1.1-1.1 2.0
2017-Jan-19 21:00N 48°06' W 062°36'1010.0 190 / 201012.0 -1.2-1.3 1.8
2017-Jan-19 20:00N 48°12' W 062°48'1010.0 200 / 231011.6 -1.3-1.3 1.7
2017-Jan-19 19:00N 48°18' W 063°00'1010.0 200 / 231011.6 -1.6-1.6 1.4
2017-Jan-19 18:00N 48°24' W 063°12'1313.4 190 / 251011.5 -1.8-1.8 1.3
2017-Jan-19 17:00N 48°30' W 063°30'1010.0 190 / 251012.0 -2.2-2.2 1.3
2017-Jan-19 16:00N 48°36' W 063°42'10 9.9 190 / 271012.4 -2.5-2.6 1.1
2017-Jan-19 15:00N 48°42' W 063°54'1313.3 200 / 231013.1 -3.1-3.1 1.1
2017-Jan-19 14:00N 48°48' W 064°12'8 7.9 200 / 151013.9 -4.6-4.7 0.6
2017-Jan-19 13:00N 48°48' W 064°24'0 0.0 170 / 61014.5 -6.5-6.5 1.1
2017-Jan-19 12:00N 48°48' W 064°24'0 0.0 1014.8 -7.0-7.0
2017-Jan-19 11:00N 48°48' W 064°24'0 0.0 150 / 11015.4 -7.0-7.1
2017-Jan-19 10:00N 48°48' W 064°24'0 0.0 1015.8 -7.0-7.0
2017-Jan-19 09:00N 48°48' W 064°24'0 0.0 290 / 31016.3 -5.9-7.2
2017-Jan-19 08:00N 48°48' W 064°24'0 0.0 1016.8 -7.0-8.9
2017-Jan-19 07:00N 48°48' W 064°24'0 0.0 160 / 11017.4 -8.2-9.1
2017-Jan-19 06:00N 48°48' W 064°24'0 0.0 310 / 41018.0 -9.1-10.4
2017-Jan-19 05:00N 48°48' W 064°24'0 0.0 300 / 11019.0 -9.2-10.2
2017-Jan-19 04:00N 48°48' W 064°24'0 0.0 240 / 31019.7 -8.2-9.9
2017-Jan-19 03:00N 48°48' W 064°24'0 0.0 300 / 11020.6 -8.5-10.4 1.8
2017-Jan-19 02:00N 48°48' W 064°24'0 0.0 340 / 11020.9 -9.3-11.1 1.5
2017-Jan-19 01:00N 48°48' W 064°24'4 4.0 260 / 21021.5 -10.0-10.6 1.4
2017-Jan-19 00:00N 48°48' W 064°18'10 9.9 240 / 41022.1 -7.1-10.7 0.8
2017-Jan-18 23:00N 48°42' W 064°06'1312.6 220 / 191021.6 -5.9-9.3 1.1
2017-Jan-18 22:00N 48°54' W 064°12'1414.4 200 / 191022.0 -6.9-10.9 1.1
2017-Jan-18 21:00N 49°06' W 064°24'1716.8 180 / 151021.8 -6.6-11.4 0.9
2017-Jan-18 20:00N 49°12' W 064°48'1313.2 170 / 31022.2 -7.0-12.8 0.7
2017-Jan-18 19:00N 49°18' W 065°06'1615.7 190 / 101022.4 -6.4-12.8 1.0
2017-Jan-18 18:00N 49°18' W 065°30'1615.7 170 / 131022.8 -6.7-13.1 1.2
2017-Jan-18 17:00N 49°18' W 065°54'1615.7 200 / 41023.8 -7.5-13.0 0.9
2017-Jan-18 16:00N 49°18' W 066°18'1313.2 230 / 71024.8 -7.8-14.1 1.1
2017-Jan-18 15:00N 49°12' W 066°36'1211.8 180 / 91025.2 -9.0-14.3 0.9
2017-Jan-18 14:00N 49°12' W 066°54'1716.8 160 / 101025.5 -9.3-15.6 1.3
2017-Jan-18 13:00N 49°06' W 067°18'1313.2 180 / 81025.5 -9.8-16.1 0.7
2017-Jan-18 12:00N 49°00' W 067°36'1313.3 150 / 181025.1 -11.7-14.2 1.5
2017-Jan-18 11:00N 48°54' W 067°54'1313.3 140 / 151025.5 -11.9-15.5 0.5
2017-Jan-18 10:00N 48°48' W 068°12'1313.3 160 / 111025.3 -12.0-16.2 0.4
2017-Jan-18 09:00N 48°42' W 068°30'1716.9 170 / 131025.5 -12.1-16.1 1.0
2017-Jan-18 08:00N 48°30' W 068°48'1010.0 150 / 151025.2 -11.3-14.4 2.2
2017-Jan-18 07:00N 48°24' W 069°00'1313.4 090 / 71025.8 -9.8-13.5 2.1
2017-Jan-18 06:00N 48°18' W 069°18'1010.0 090 / 151026.1 -9.2-11.5 2.5
2017-Jan-18 05:00N 48°12' W 069°30'2019.7 080 / 161026.4 -9.0-12.7 2.7
2017-Jan-18 04:00N 47°54' W 069°42'1414.5 070 / 111026.4 -9.4-12.7 1.6
2017-Jan-18 03:00N 47°42' W 069°54'1717.1 030 / 161025.9 -8.7-9.6 1.1
2017-Jan-18 02:00N 47°30' W 070°12'17 8.6 030 / 171026.5 -8.5-10.3 1.4
2017-Jan-18 00:00N 47°18' W 070°30'1514.5 020 / 181026.1 -7.7-9.9 1.3
2017-Jan-17 23:00N 47°06' W 070°42'1312.7 030 / 211025.5 -7.1-10.1 1.7
2017-Jan-17 22:00N 46°54' W 070°48'1413.7 060 / 281024.9 -5.9-10.4 1.6
2017-Jan-17 21:00N 46°48' W 071°06'4 2.1 080 / 161025.1 -5.9-9.5 1.4
2017-Jan-17 19:00N 46°48' W 071°12'0 0.0 060 / 81026.4 -5.0-9.1
2017-Jan-17 18:00N 46°48' W 071°12'0 0.0 060 / 81026.4 -4.5-9.6
2017-Jan-17 17:00N 46°48' W 071°12'0 0.0 080 / 71026.6 -4.3-9.6
2017-Jan-17 16:00N 46°48' W 071°12'0 0.0 060 / 81026.8 -3.9-9.6
2017-Jan-17 15:00N 46°48' W 071°12'0 0.0 100 / 31027.5 -3.3-8.7
2017-Jan-17 14:00N 46°48' W 071°12'0 0.0 060 / 21026.9 -4.2-7.5
2017-Jan-17 13:00N 46°48' W 071°12'0 0.0 1026.1 -4.4-7.6
2017-Jan-17 12:00N 46°48' W 071°12'0 0.0 330 / 51025.3 -4.2-8.4
2017-Jan-17 05:00N 46°48' W 071°12'0 0.0 270 / 131020.6 -0.3-2.2
2017-Jan-17 04:00N 46°48' W 071°12'0 0.0 260 / 111020.3 -0.2-2.4
2017-Jan-17 03:00N 46°48' W 071°12'0 0.0 260 / 81020.0 -0.3-2.6
2017-Jan-17 02:00N 46°48' W 071°12'0 0.0 310 / 101019.3 -0.2-2.2
2017-Jan-17 01:00N 46°48' W 071°12'0 0.0 250 / 171019.2 -0.2-1.8
2017-Jan-17 00:00N 46°48' W 071°12'0 0.0 240 / 121019.0 -0.5-1.2
2017-Jan-16 23:00N 46°48' W 071°12'0 0.0 250 / 151018.8 -0.3-1.7
2017-Jan-16 22:00N 46°48' W 071°12'0 0.0 250 / 171018.9 -0.3-2.2
2017-Jan-16 21:00N 46°48' W 071°12'0 0.0 250 / 141018.4 -1.5-2.4
2017-Jan-16 20:00N 46°48' W 071°12'0 0.0 230 / 111017.9 -2.4-2.6
2017-Jan-16 19:00N 46°48' W 071°12'0 0.0 230 / 61018.0 -4.0-4.1
2017-Jan-16 18:00N 46°48' W 071°12'0 0.0 220 / 21018.8 -5.1-6.1
2017-Jan-16 17:00N 46°48' W 071°12'0 0.0 260 / 71020.0 -7.6-8.3
2017-Jan-16 16:00N 46°48' W 071°12'0 0.0 240 / 61021.4 -8.1-11.1
2017-Jan-16 15:00N 46°48' W 071°12'0 0.0 1022.0 -9.7-12.6
2017-Jan-16 14:00N 46°48' W 071°12'0 0.0 280 / 41023.0 -10.6-14.5 1.3
2017-Jan-16 13:00N 46°48' W 071°12'0 0.0 1024.1 -11.7-13.6 1.8
2017-Jan-16 12:00N 46°48' W 071°12'0 0.0 240 / 31025.3 -11.9-13.1 1.7
2017-Jan-16 11:00N 46°48' W 071°12'0 0.0 270 / 11026.5 -12.6-17.8
2017-Jan-16 10:00N 46°48' W 071°12'0 0.0 290 / 11027.8 -13.9-19.2
2017-Jan-16 09:00N 46°48' W 071°12'0 0.0 1028.4 -13.9-18.7
2017-Jan-16 08:00N 46°48' W 071°12'0 0.0 270 / 31028.5 -13.3-16.8
2017-Jan-16 07:00N 46°48' W 071°12'0 0.0 1028.8 -13.1-17.9
2017-Jan-16 06:00N 46°48' W 071°12'0 0.0 300 / 51028.9 -14.3-19.5
2017-Jan-16 05:00N 46°48' W 071°12'0 0.0 270 / 31029.1 -14.1-19.1
2017-Jan-16 04:00N 46°48' W 071°12'0 0.0 1029.8 -13.1-18.8
2017-Jan-16 03:00N 46°48' W 071°12'0 0.0 280 / 41029.8 -13.4-19.7
2017-Jan-16 02:00N 46°48' W 071°12'0 0.0 250 / 21030.1 -12.9-18.3
2017-Jan-16 01:00N 46°48' W 071°12'0 0.0 250 / 11029.8 -13.1-18.9
2017-Jan-16 00:00N 46°48' W 071°12'0 0.0 240 / 21030.0 -12.4-18.4
2017-Jan-15 23:00N 46°48' W 071°12'0 0.0 250 / 41029.7 -12.1-18.5
2017-Jan-15 22:00N 46°48' W 071°12'0 0.0 240 / 31029.4 -11.2-17.6
2017-Jan-15 21:00N 46°48' W 071°12'0 0.0 240 / 41028.8 -10.6-17.9
2017-Jan-15 20:00N 46°48' W 071°12'0 0.0 230 / 31028.6 -9.2-17.2
2017-Jan-15 19:00N 46°48' W 071°12'0 0.0 240 / 31028.0 -9.9-17.9
2017-Jan-15 18:00N 46°48' W 071°12'0 0.0 250 / 31027.7 -10.3-18.5
2017-Jan-15 17:00N 46°48' W 071°12'0 0.0 290 / 41027.9 -11.2-20.8
2017-Jan-15 16:00N 46°48' W 071°12'0 0.0 280 / 31028.6 -11.8-21.0
2017-Jan-15 15:00N 46°48' W 071°12'0 0.0 280 / 41028.4 -11.7-18.8
2017-Jan-15 14:00N 46°48' W 071°12'0 0.0 250 / 21027.2 -11.0-17.5
2017-Jan-15 13:00N 46°48' W 071°12'0 0.0 250 / 31025.7 -11.9-16.3
2017-Jan-15 12:00N 46°48' W 071°12'0 0.0 230 / 21024.3 -11.2-13.8
2017-Jan-15 11:00N 46°48' W 071°12'0 0.0 240 / 21022.8 -10.8-13.5
2017-Jan-15 10:00N 46°48' W 071°12'0 0.0 250 / 21022.0 -12.0-12.8
2017-Jan-15 09:00N 46°48' W 071°12'0 0.0 250 / 61021.7 -11.5-11.8
2017-Jan-15 08:00N 46°48' W 071°12'0 0.0 270 / 11021.4 -13.6-13.7
2017-Jan-15 07:00N 46°48' W 071°12'0 0.0 1021.4 -13.6-13.7
2017-Jan-15 06:00N 46°48' W 071°12'0 0.0 1021.5 -14.2-14.5
2017-Jan-15 05:00N 46°48' W 071°12'0 0.0 280 / 31022.2 -14.6-15.2
2017-Jan-15 04:00N 46°48' W 071°12'0 0.0 1023.3 -15.0-15.6
2017-Jan-15 03:00N 46°48' W 071°12'0 0.0 290 / 41023.8 -15.4-16.3
2017-Jan-15 02:00N 46°48' W 071°12'0 0.0 290 / 31024.7 -15.7-17.8
2017-Jan-15 01:00N 46°48' W 071°12'0 0.0 300 / 31025.5 -15.5-20.6
2017-Jan-15 00:00N 46°48' W 071°12'0 0.0 290 / 41026.9 -15.7-21.6
2017-Jan-14 22:00N 46°48' W 071°12'0 0.0 280 / 41029.6 -15.4-21.8
2017-Jan-14 21:00N 46°48' W 071°12'0 0.0 270 / 61031.3 -15.2-21.3
2017-Jan-14 20:00N 46°48' W 071°12'0 0.0 270 / 41032.8 -15.1-21.1
2017-Jan-14 19:00N 46°48' W 071°12'0 0.0 260 / 51034.3 -15.1-21.3
2017-Jan-14 18:00N 46°48' W 071°12'0 0.0 230 / 51035.3 -14.5-20.7
2017-Jan-14 17:00N 46°48' W 071°12'0 0.0 250 / 41037.0 -15.7-20.8
2017-Jan-14 16:00N 46°48' W 071°12'0 0.0 270 / 61038.3 -18.3-24.4
2017-Jan-14 15:00N 46°48' W 071°12'0 0.0 270 / 61039.2 -17.9-24.2
2017-Jan-14 14:00N 46°48' W 071°12'0 0.0 250 / 31039.7 -17.7-23.2
2017-Jan-14 13:00N 46°48' W 071°12'0 0.0 280 / 51039.6 -20.0-25.1
2017-Jan-14 12:00N 46°48' W 071°12'0 0.0 270 / 91039.7 -20.0-25.3
2017-Jan-14 11:00N 46°48' W 071°12'0 0.0 260 / 61040.2 -19.5-24.2
2017-Jan-14 10:00N 46°48' W 071°12'0 0.0 260 / 71040.4 -19.3-24.0
2017-Jan-14 09:00N 46°48' W 071°12'0 0.0 250 / 31040.8 -17.6-21.6
2017-Jan-14 08:00N 46°48' W 071°12'0 0.0 240 / 31041.0 -17.0-20.8
2017-Jan-14 07:00N 46°48' W 071°12'0 0.0 240 / 21041.2 -16.3-20.7
2017-Jan-14 06:00N 46°48' W 071°12'0 0.0 240 / 21041.1 -15.8-20.5
2017-Jan-14 05:00N 46°48' W 071°12'0 0.0 250 / 31040.8 -15.8-20.9
2017-Jan-14 04:00N 46°48' W 071°12'0 0.0 270 / 41040.4 -15.5-21.7
2017-Jan-14 03:00N 46°48' W 071°12'0 0.0 250 / 41040.0 -14.5-21.2
2017-Jan-14 02:00N 46°48' W 071°12'0 0.0 260 / 61039.4 -14.1-21.2
2017-Jan-14 01:00N 46°48' W 071°12'0 0.0 240 / 41038.5 -13.0-19.4 0.8
2017-Jan-14 00:00N 46°48' W 071°12'0 0.0 240 / 41037.6 -12.2-19.0
2017-Jan-13 23:00N 46°48' W 071°12'0 0.0 250 / 61036.3 -11.9-18.8
2017-Jan-13 22:00N 46°48' W 071°12'1413.7 270 / 141034.6 -11.8-19.5 2.0
2017-Jan-13 21:00N 46°54' W 070°54'1514.5 280 / 231032.3 -11.1-19.1 1.8
2017-Jan-13 20:00N 47°06' W 070°42'2019.8 270 / 121029.6 -10.5-21.6 1.6
2017-Jan-13 19:00N 47°24' W 070°30'1413.6 320 / 221026.7 -9.6-20.2 1.3
2017-Jan-13 18:00N 47°30' W 070°12'1717.1 300 / 251023.5 -7.9-17.6 1.9
2017-Jan-13 17:00N 47°42' W 069°54'1312.7 290 / 281021.2 -7.1-18.0 2.4
2017-Jan-13 16:00N 47°54' W 069°48'1414.4 300 / 201021.1 -7.7-14.4 2.1
2017-Jan-13 15:00N 48°06' W 069°36'1312.6 300 / 241019.2 -7.0-11.0 3.2
2017-Jan-13 14:00N 48°18' W 069°30'1010.0 270 / 251017.6 -7.9-10.5 3.6
2017-Jan-13 13:00N 48°24' W 069°18'1010.0 260 / 261014.7 -6.4-10.9 3.4
2017-Jan-13 12:00N 48°30' W 069°06'1313.3 270 / 281012.2 -4.9-9.7 2.7
2017-Jan-13 11:00N 48°36' W 068°48'10 9.9 280 / 381008.6 -3.2-6.3 2.4
2017-Jan-13 10:00N 48°42' W 068°36'10 9.9 280 / 131008.2 -2.6-2.7 1.5
2017-Jan-13 09:00N 48°48' W 068°24'1313.3 300 / 151007.6 -3.9-4.1 1.2
2017-Jan-13 08:00N 48°54' W 068°06'1313.3 300 / 181006.8 -4.0-4.0 1.7
2017-Jan-13 07:00N 49°00' W 067°48'10 9.9 310 / 151006.1 -2.7-2.7 1.5
2017-Jan-13 06:00N 49°06' W 067°36'1716.8 320 / 101005.5 -1.4-1.3 1.5
2017-Jan-13 05:00N 49°18' W 067°18'3115.5 360 / 111005.6 -1.3-1.3 2.2
2017-Jan-13 03:00N 49°42' W 066°48'1212.0 340 / 161006.5 -2.3-2.2 1.2
2017-Jan-13 02:00N 49°54' W 066°48'6 6.0 350 / 111007.0 -2.3-2.3 1.1
2017-Jan-13 01:00N 50°00' W 066°48'0 0.0 360 / 31007.9 -1.5-1.5
2017-Jan-13 00:00N 50°00' W 066°48'0 0.0 320 / 21008.5 -0.9-0.9
2017-Jan-12 23:00N 50°00' W 066°48'0 0.0 010 / 41007.9 -0.1-0.2
2017-Jan-12 22:00N 50°00' W 066°48'0 0.0 020 / 31008.0 0.3 0.3
2017-Jan-12 21:00N 50°00' W 066°48'0 0.0 030 / 31007.7 0.7 0.7
2017-Jan-12 20:00N 50°00' W 066°48'0 0.0 320 / 31007.5 0.4 0.5
2017-Jan-12 19:00N 50°00' W 066°48'0 0.0 070 / 41006.7 0.5 0.5
2017-Jan-12 18:00N 50°00' W 066°48'0 0.0 080 / 71006.5 0.7 0.8
2017-Jan-12 17:00N 50°00' W 066°48'0 0.0 080 / 71007.6 1.1 1.1
2017-Jan-12 16:00N 50°00' W 066°48'0 0.0 070 / 61009.1 1.0 1.0
2017-Jan-12 15:00N 50°00' W 066°48'0 0.0 070 / 41010.4 1.3 1.3
2017-Jan-12 14:00N 50°00' W 066°48'0 0.0 070 / 11010.5 1.4 1.2
2017-Jan-12 13:00N 50°00' W 066°48'0 0.0 080 / 31010.2 1.3 0.9
2017-Jan-12 06:00N 50°00' W 066°48'0 0.0 230 / 11011.2 1.0 0.9
2017-Jan-12 05:00N 50°00' W 066°48'0 0.0 260 / 11012.8 1.7 1.5
2017-Jan-12 04:00N 50°00' W 066°48'10 4.9 200 / 171013.9 0.7 0.7 1.1
2017-Jan-12 02:00N 49°54' W 066°36'4 3.9 220 / 171015.7 0.9 0.1 1.4
2017-Jan-12 01:00N 49°54' W 066°30'0 0.0 230 / 281014.4 1.4 0.9 1.7
2017-Jan-12 00:00N 49°54' W 066°30'6 3.0 230 / 231013.8 1.3 1.2 1.9
2017-Jan-11 22:00N 50°00' W 066°30'6 6.0 220 / 311008.8 1.6 1.5 1.4
2017-Jan-11 21:00N 50°06' W 066°30'7 7.1 220 / 301006.8 1.9 1.8 1.4
2017-Jan-11 20:00N 50°00' W 066°36'0 0.0 220 / 321004.4 2.2 2.1 1.3
2017-Jan-11 19:00N 50°00' W 066°36'   220 / 281003.0 2.4 2.3 1.2
Track history (hours):
 
Tides and Currents Weather Stations Pressure Air Temp Water Temp Dewpoint Dewpoint Depression Visibility Wind Speed Wind Dir Waves Ship Positions

Sarah Desgagnes

Last reported at 2017-Jan-21 19:00 UTC. Time now 2017-Jan-21 19:43 UTC.
Position N 45°54' W 059°30'.

Length 147 m; draft 5.5 m.

Type: Ship. MMSI: 316012308.

Wind from 310 at 15 knots

Barometer 1004.3 mb
Air temperature -0.3 ° C
Dewpoint -0.7 ° C
Water temperature 3.1 ° C

Date/timePositionNaut miles runAvg speedWind from/ knotsBaromVisibWave heightAir tempDewpointWater temp
2017-Jan-21 19:00N 45°54' W 059°30'2019.8 310 / 151004.3 -0.3-0.7 3.1
2017-Jan-21 18:00N 46°12' W 059°42'1010.2 310 / 151004.6 -0.3-0.7 2.8
2017-Jan-21 17:00N 46°18' W 059°54'1413.8 300 / 161005.3 -0.7-1.4 2.4
2017-Jan-21 16:00N 46°12' W 060°12'6 6.0 290 / 131005.8 -0.5-1.3 1.8
2017-Jan-21 15:00N 46°06' W 060°12'0 0.0 310 / 101007.6 -0.4-0.5
2017-Jan-21 14:00N 46°06' W 060°12'0 0.0 290 / 71007.8 -0.8-0.9
2017-Jan-21 13:00N 46°06' W 060°12'0 0.0 340 / 91008.1 -0.3-1.5
2017-Jan-21 12:00N 46°06' W 060°12'0 0.0 340 / 71008.2 -0.5-1.0
2017-Jan-21 11:00N 46°06' W 060°12'0 0.0 320 / 81008.7 -1.3-1.6
2017-Jan-21 10:00N 46°06' W 060°12'0 0.0 320 / 91008.8 -1.5-2.0
2017-Jan-21 08:00N 46°06' W 060°12'0 0.0 310 / 51009.3 -2.5-2.6
2017-Jan-21 07:00N 46°06' W 060°12'0 0.0 310 / 71009.6 -2.5-2.6
2017-Jan-21 06:00N 46°06' W 060°12'0 0.0 1009.7 -2.7-2.7
2017-Jan-21 05:00N 46°06' W 060°12'0 0.0 310 / 51009.9 -2.4-2.4
2017-Jan-21 04:00N 46°06' W 060°12'0 0.0 360 / 41010.3 -1.5-1.6
2017-Jan-21 03:00N 46°06' W 060°12'0 0.0 010 / 41011.3 -0.9-1.0
2017-Jan-21 02:00N 46°06' W 060°12'0 0.0 020 / 51011.5 -1.0-1.1
2017-Jan-21 00:00N 46°06' W 060°12'0 0.0 360 / 41012.7 -1.0-1.1
2017-Jan-20 23:00N 46°06' W 060°12'0 0.0 020 / 41012.7 -0.5-0.6
2017-Jan-20 22:00N 46°06' W 060°12'0 0.0 010 / 31012.6 -0.4-0.4
2017-Jan-20 21:00N 46°06' W 060°12'0 0.0 070 / 21012.6 -0.0-0.0
2017-Jan-20 20:00N 46°06' W 060°12'0 0.0 070 / 31012.7 0.1 0.1
2017-Jan-20 19:00N 46°06' W 060°12'0 0.0 070 / 21012.2 0.3 0.3
2017-Jan-20 18:00N 46°06' W 060°12'0 0.0 120 / 41012.0 0.8 0.8
2017-Jan-20 17:00N 46°06' W 060°12'0 0.0 130 / 41012.1 1.4 1.4
2017-Jan-20 16:00N 46°06' W 060°12'0 0.0 130 / 41012.4 1.6 1.7
2017-Jan-20 15:00N 46°06' W 060°12'0 0.0 120 / 61012.6 1.2 1.3
2017-Jan-20 14:00N 46°06' W 060°12'6 6.0 120 / 31012.6 0.7 0.8
2017-Jan-20 13:00N 46°12' W 060°12'0 0.0 180 / 41012.2 0.1 0.2 2.5
2017-Jan-20 12:00N 46°12' W 060°12'7 7.3 070 / 31011.9 -0.0 0.1 2.7
2017-Jan-20 11:00N 46°18' W 060°06'1312.7 110 / 41011.7 -0.0 0.1 2.7
2017-Jan-20 10:00N 46°30' W 060°12'1212.0 100 / 91011.8 0.1 0.2 2.7
2017-Jan-20 09:00N 46°42' W 060°12'1212.0 110 / 101011.9 0.1 0.1 2.8
2017-Jan-20 08:00N 46°54' W 060°12'1312.7 130 / 101012.2 -0.0 0.1 2.5
2017-Jan-20 07:00N 47°06' W 060°18'1312.7 160 / 101012.6 -0.0 0.1 2.1
2017-Jan-20 06:00N 47°18' W 060°24'7 7.2 160 / 161012.1 -0.1-0.1 2.2
2017-Jan-20 05:00N 47°24' W 060°30'1414.5 160 / 181012.1 -0.1-0.1 2.2
2017-Jan-20 04:00N 47°36' W 060°42'8 8.1 190 / 171012.5 -0.4-0.4 2.1
2017-Jan-20 03:00N 47°36' W 060°54'1413.5 170 / 151012.9 -0.5-0.5 1.9
2017-Jan-20 02:00N 47°42' W 061°12'1212.1 170 / 161012.9 -0.9-0.9 1.6
2017-Jan-20 01:00N 47°42' W 061°30'1413.5 170 / 171012.8 -1.3-1.3 1.7
2017-Jan-20 00:00N 47°48' W 061°48'1010.0 180 / 221012.4 -1.3-1.2 2.1
2017-Jan-19 23:00N 47°54' W 062°00'1313.5 180 / 221012.2 -1.2-1.2 2.0
2017-Jan-19 22:00N 48°00' W 062°18'1313.4 190 / 221012.0 -1.1-1.1 2.0
2017-Jan-19 21:00N 48°06' W 062°36'1010.0 190 / 201012.0 -1.2-1.3 1.8
2017-Jan-19 20:00N 48°12' W 062°48'1010.0 200 / 231011.6 -1.3-1.3 1.7
2017-Jan-19 19:00N 48°18' W 063°00'1010.0 200 / 231011.6 -1.6-1.6 1.4
2017-Jan-19 18:00N 48°24' W 063°12'1313.4 190 / 251011.5 -1.8-1.8 1.3
2017-Jan-19 17:00N 48°30' W 063°30'1010.0 190 / 251012.0 -2.2-2.2 1.3
2017-Jan-19 16:00N 48°36' W 063°42'10 9.9 190 / 271012.4 -2.5-2.6 1.1
2017-Jan-19 15:00N 48°42' W 063°54'1313.3 200 / 231013.1 -3.1-3.1 1.1
2017-Jan-19 14:00N 48°48' W 064°12'8 7.9 200 / 151013.9 -4.6-4.7 0.6
2017-Jan-19 13:00N 48°48' W 064°24'0 0.0 170 / 61014.5 -6.5-6.5 1.1
2017-Jan-19 12:00N 48°48' W 064°24'0 0.0 1014.8 -7.0-7.0
2017-Jan-19 11:00N 48°48' W 064°24'0 0.0 150 / 11015.4 -7.0-7.1
2017-Jan-19 10:00N 48°48' W 064°24'0 0.0 1015.8 -7.0-7.0
2017-Jan-19 09:00N 48°48' W 064°24'0 0.0 290 / 31016.3 -5.9-7.2
2017-Jan-19 08:00N 48°48' W 064°24'0 0.0 1016.8 -7.0-8.9
2017-Jan-19 07:00N 48°48' W 064°24'0 0.0 160 / 11017.4 -8.2-9.1
2017-Jan-19 06:00N 48°48' W 064°24'0 0.0 310 / 41018.0 -9.1-10.4
2017-Jan-19 05:00N 48°48' W 064°24'0 0.0 300 / 11019.0 -9.2-10.2
2017-Jan-19 04:00N 48°48' W 064°24'0 0.0 240 / 31019.7 -8.2-9.9
2017-Jan-19 03:00N 48°48' W 064°24'0 0.0 300 / 11020.6 -8.5-10.4 1.8
2017-Jan-19 02:00N 48°48' W 064°24'0 0.0 340 / 11020.9 -9.3-11.1 1.5
2017-Jan-19 01:00N 48°48' W 064°24'4 4.0 260 / 21021.5 -10.0-10.6 1.4
2017-Jan-19 00:00N 48°48' W 064°18'10 9.9 240 / 41022.1 -7.1-10.7 0.8
2017-Jan-18 23:00N 48°42' W 064°06'1312.6 220 / 191021.6 -5.9-9.3 1.1
2017-Jan-18 22:00N 48°54' W 064°12'1414.4 200 / 191022.0 -6.9-10.9 1.1
2017-Jan-18 21:00N 49°06' W 064°24'1716.8 180 / 151021.8 -6.6-11.4 0.9
2017-Jan-18 20:00N 49°12' W 064°48'1313.2 170 / 31022.2 -7.0-12.8 0.7
2017-Jan-18 19:00N 49°18' W 065°06'1615.7 190 / 101022.4 -6.4-12.8 1.0
2017-Jan-18 18:00N 49°18' W 065°30'1615.7 170 / 131022.8 -6.7-13.1 1.2
2017-Jan-18 17:00N 49°18' W 065°54'1615.7 200 / 41023.8 -7.5-13.0 0.9
2017-Jan-18 16:00N 49°18' W 066°18'1313.2 230 / 71024.8 -7.8-14.1 1.1
2017-Jan-18 15:00N 49°12' W 066°36'1211.8 180 / 91025.2 -9.0-14.3 0.9
2017-Jan-18 14:00N 49°12' W 066°54'1716.8 160 / 101025.5 -9.3-15.6 1.3
2017-Jan-18 13:00N 49°06' W 067°18'1313.2 180 / 81025.5 -9.8-16.1 0.7
2017-Jan-18 12:00N 49°00' W 067°36'1313.3 150 / 181025.1 -11.7-14.2 1.5
2017-Jan-18 11:00N 48°54' W 067°54'1313.3 140 / 151025.5 -11.9-15.5 0.5
2017-Jan-18 10:00N 48°48' W 068°12'1313.3 160 / 111025.3 -12.0-16.2 0.4
2017-Jan-18 09:00N 48°42' W 068°30'1716.9 170 / 131025.5 -12.1-16.1 1.0
2017-Jan-18 08:00N 48°30' W 068°48'1010.0 150 / 151025.2 -11.3-14.4 2.2
2017-Jan-18 07:00N 48°24' W 069°00'1313.4 090 / 71025.8 -9.8-13.5 2.1
2017-Jan-18 06:00N 48°18' W 069°18'1010.0 090 / 151026.1 -9.2-11.5 2.5
2017-Jan-18 05:00N 48°12' W 069°30'2019.7 080 / 161026.4 -9.0-12.7 2.7
2017-Jan-18 04:00N 47°54' W 069°42'1414.5 070 / 111026.4 -9.4-12.7 1.6
2017-Jan-18 03:00N 47°42' W 069°54'1717.1 030 / 161025.9 -8.7-9.6 1.1
2017-Jan-18 02:00N 47°30' W 070°12'17 8.6 030 / 171026.5 -8.5-10.3 1.4
2017-Jan-18 00:00N 47°18' W 070°30'1514.5 020 / 181026.1 -7.7-9.9 1.3
2017-Jan-17 23:00N 47°06' W 070°42'1312.7 030 / 211025.5 -7.1-10.1 1.7
2017-Jan-17 22:00N 46°54' W 070°48'1413.7 060 / 281024.9 -5.9-10.4 1.6
2017-Jan-17 21:00N 46°48' W 071°06'4 2.1 080 / 161025.1 -5.9-9.5 1.4
2017-Jan-17 19:00N 46°48' W 071°12'0 0.0 060 / 81026.4 -5.0-9.1
2017-Jan-17 18:00N 46°48' W 071°12'0 0.0 060 / 81026.4 -4.5-9.6
2017-Jan-17 17:00N 46°48' W 071°12'0 0.0 080 / 71026.6 -4.3-9.6
2017-Jan-17 16:00N 46°48' W 071°12'0 0.0 060 / 81026.8 -3.9-9.6
2017-Jan-17 15:00N 46°48' W 071°12'0 0.0 100 / 31027.5 -3.3-8.7
2017-Jan-17 14:00N 46°48' W 071°12'0 0.0 060 / 21026.9 -4.2-7.5
2017-Jan-17 13:00N 46°48' W 071°12'0 0.0 1026.1 -4.4-7.6
2017-Jan-17 12:00N 46°48' W 071°12'0 0.0 330 / 51025.3 -4.2-8.4
2017-Jan-17 05:00N 46°48' W 071°12'0 0.0 270 / 131020.6 -0.3-2.2
2017-Jan-17 04:00N 46°48' W 071°12'0 0.0 260 / 111020.3 -0.2-2.4
2017-Jan-17 03:00N 46°48' W 071°12'0 0.0 260 / 81020.0 -0.3-2.6
2017-Jan-17 02:00N 46°48' W 071°12'0 0.0 310 / 101019.3 -0.2-2.2
2017-Jan-17 01:00N 46°48' W 071°12'0 0.0 250 / 171019.2 -0.2-1.8
2017-Jan-17 00:00N 46°48' W 071°12'0 0.0 240 / 121019.0 -0.5-1.2
2017-Jan-16 23:00N 46°48' W 071°12'0 0.0 250 / 151018.8 -0.3-1.7
2017-Jan-16 22:00N 46°48' W 071°12'0 0.0 250 / 171018.9 -0.3-2.2
2017-Jan-16 21:00N 46°48' W 071°12'0 0.0 250 / 141018.4 -1.5-2.4
2017-Jan-16 20:00N 46°48' W 071°12'0 0.0 230 / 111017.9 -2.4-2.6
2017-Jan-16 19:00N 46°48' W 071°12'0 0.0 230 / 61018.0 -4.0-4.1
2017-Jan-16 18:00N 46°48' W 071°12'0 0.0 220 / 21018.8 -5.1-6.1
2017-Jan-16 17:00N 46°48' W 071°12'0 0.0 260 / 71020.0 -7.6-8.3
2017-Jan-16 16:00N 46°48' W 071°12'0 0.0 240 / 61021.4 -8.1-11.1
2017-Jan-16 15:00N 46°48' W 071°12'0 0.0 1022.0 -9.7-12.6
2017-Jan-16 14:00N 46°48' W 071°12'0 0.0 280 / 41023.0 -10.6-14.5 1.3
2017-Jan-16 13:00N 46°48' W 071°12'0 0.0 1024.1 -11.7-13.6 1.8
2017-Jan-16 12:00N 46°48' W 071°12'0 0.0 240 / 31025.3 -11.9-13.1 1.7
2017-Jan-16 11:00N 46°48' W 071°12'0 0.0 270 / 11026.5 -12.6-17.8
2017-Jan-16 10:00N 46°48' W 071°12'0 0.0 290 / 11027.8 -13.9-19.2
2017-Jan-16 09:00N 46°48' W 071°12'0 0.0 1028.4 -13.9-18.7
2017-Jan-16 08:00N 46°48' W 071°12'0 0.0 270 / 31028.5 -13.3-16.8
2017-Jan-16 07:00N 46°48' W 071°12'0 0.0 1028.8 -13.1-17.9
2017-Jan-16 06:00N 46°48' W 071°12'0 0.0 300 / 51028.9 -14.3-19.5
2017-Jan-16 05:00N 46°48' W 071°12'0 0.0 270 / 31029.1 -14.1-19.1
2017-Jan-16 04:00N 46°48' W 071°12'0 0.0 1029.8 -13.1-18.8
2017-Jan-16 03:00N 46°48' W 071°12'0 0.0 280 / 41029.8 -13.4-19.7
2017-Jan-16 02:00N 46°48' W 071°12'0 0.0 250 / 21030.1 -12.9-18.3
2017-Jan-16 01:00N 46°48' W 071°12'0 0.0 250 / 11029.8 -13.1-18.9
2017-Jan-16 00:00N 46°48' W 071°12'0 0.0 240 / 21030.0 -12.4-18.4
2017-Jan-15 23:00N 46°48' W 071°12'0 0.0 250 / 41029.7 -12.1-18.5
2017-Jan-15 22:00N 46°48' W 071°12'0 0.0 240 / 31029.4 -11.2-17.6
2017-Jan-15 21:00N 46°48' W 071°12'0 0.0 240 / 41028.8 -10.6-17.9
2017-Jan-15 20:00N 46°48' W 071°12'0 0.0 230 / 31028.6 -9.2-17.2
2017-Jan-15 19:00N 46°48' W 071°12'0 0.0 240 / 31028.0 -9.9-17.9
2017-Jan-15 18:00N 46°48' W 071°12'0 0.0 250 / 31027.7 -10.3-18.5
2017-Jan-15 17:00N 46°48' W 071°12'0 0.0 290 / 41027.9 -11.2-20.8
2017-Jan-15 16:00N 46°48' W 071°12'0 0.0 280 / 31028.6 -11.8-21.0
2017-Jan-15 15:00N 46°48' W 071°12'0 0.0 280 / 41028.4 -11.7-18.8
2017-Jan-15 14:00N 46°48' W 071°12'0 0.0 250 / 21027.2 -11.0-17.5
2017-Jan-15 13:00N 46°48' W 071°12'0 0.0 250 / 31025.7 -11.9-16.3
2017-Jan-15 12:00N 46°48' W 071°12'0 0.0 230 / 21024.3 -11.2-13.8
2017-Jan-15 11:00N 46°48' W 071°12'0 0.0 240 / 21022.8 -10.8-13.5
2017-Jan-15 10:00N 46°48' W 071°12'0 0.0 250 / 21022.0 -12.0-12.8
2017-Jan-15 09:00N 46°48' W 071°12'0 0.0 250 / 61021.7 -11.5-11.8
2017-Jan-15 08:00N 46°48' W 071°12'0 0.0 270 / 11021.4 -13.6-13.7
2017-Jan-15 07:00N 46°48' W 071°12'0 0.0 1021.4 -13.6-13.7
2017-Jan-15 06:00N 46°48' W 071°12'0 0.0 1021.5 -14.2-14.5
2017-Jan-15 05:00N 46°48' W 071°12'0 0.0 280 / 31022.2 -14.6-15.2
2017-Jan-15 04:00N 46°48' W 071°12'0 0.0 1023.3 -15.0-15.6
2017-Jan-15 03:00N 46°48' W 071°12'0 0.0 290 / 41023.8 -15.4-16.3
2017-Jan-15 02:00N 46°48' W 071°12'0 0.0 290 / 31024.7 -15.7-17.8
2017-Jan-15 01:00N 46°48' W 071°12'0 0.0 300 / 31025.5 -15.5-20.6
2017-Jan-15 00:00N 46°48' W 071°12'0 0.0 290 / 41026.9 -15.7-21.6
2017-Jan-14 22:00N 46°48' W 071°12'0 0.0 280 / 41029.6 -15.4-21.8
2017-Jan-14 21:00N 46°48' W 071°12'0 0.0 270 / 61031.3 -15.2-21.3
2017-Jan-14 20:00N 46°48' W 071°12'0 0.0 270 / 41032.8 -15.1-21.1
2017-Jan-14 19:00N 46°48' W 071°12'0 0.0 260 / 51034.3 -15.1-21.3
2017-Jan-14 18:00N 46°48' W 071°12'0 0.0 230 / 51035.3 -14.5-20.7
2017-Jan-14 17:00N 46°48' W 071°12'0 0.0 250 / 41037.0 -15.7-20.8
2017-Jan-14 16:00N 46°48' W 071°12'0 0.0 270 / 61038.3 -18.3-24.4
2017-Jan-14 15:00N 46°48' W 071°12'0 0.0 270 / 61039.2 -17.9-24.2
2017-Jan-14 14:00N 46°48' W 071°12'0 0.0 250 / 31039.7 -17.7-23.2
2017-Jan-14 13:00N 46°48' W 071°12'0 0.0 280 / 51039.6 -20.0-25.1
2017-Jan-14 12:00N 46°48' W 071°12'0 0.0 270 / 91039.7 -20.0-25.3
2017-Jan-14 11:00N 46°48' W 071°12'0 0.0 260 / 61040.2 -19.5-24.2
2017-Jan-14 10:00N 46°48' W 071°12'0 0.0 260 / 71040.4 -19.3-24.0
2017-Jan-14 09:00N 46°48' W 071°12'0 0.0 250 / 31040.8 -17.6-21.6
2017-Jan-14 08:00N 46°48' W 071°12'0 0.0 240 / 31041.0 -17.0-20.8
2017-Jan-14 07:00N 46°48' W 071°12'0 0.0 240 / 21041.2 -16.3-20.7
2017-Jan-14 06:00N 46°48' W 071°12'0 0.0 240 / 21041.1 -15.8-20.5
2017-Jan-14 05:00N 46°48' W 071°12'0 0.0 250 / 31040.8 -15.8-20.9
2017-Jan-14 04:00N 46°48' W 071°12'0 0.0 270 / 41040.4 -15.5-21.7
2017-Jan-14 03:00N 46°48' W 071°12'0 0.0 250 / 41040.0 -14.5-21.2
2017-Jan-14 02:00N 46°48' W 071°12'0 0.0 260 / 61039.4 -14.1-21.2
2017-Jan-14 01:00N 46°48' W 071°12'0 0.0 240 / 41038.5 -13.0-19.4 0.8
2017-Jan-14 00:00N 46°48' W 071°12'0 0.0 240 / 41037.6 -12.2-19.0
2017-Jan-13 23:00N 46°48' W 071°12'0 0.0 250 / 61036.3 -11.9-18.8
2017-Jan-13 22:00N 46°48' W 071°12'1413.7 270 / 141034.6 -11.8-19.5 2.0
2017-Jan-13 21:00N 46°54' W 070°54'1514.5 280 / 231032.3 -11.1-19.1 1.8
2017-Jan-13 20:00N 47°06' W 070°42'2019.8 270 / 121029.6 -10.5-21.6 1.6
2017-Jan-13 19:00N 47°24' W 070°30'1413.6 320 / 221026.7 -9.6-20.2 1.3
2017-Jan-13 18:00N 47°30' W 070°12'1717.1 300 / 251023.5 -7.9-17.6 1.9
2017-Jan-13 17:00N 47°42' W 069°54'1312.7 290 / 281021.2 -7.1-18.0 2.4
2017-Jan-13 16:00N 47°54' W 069°48'1414.4 300 / 201021.1 -7.7-14.4 2.1
2017-Jan-13 15:00N 48°06' W 069°36'1312.6 300 / 241019.2 -7.0-11.0 3.2
2017-Jan-13 14:00N 48°18' W 069°30'1010.0 270 / 251017.6 -7.9-10.5 3.6
2017-Jan-13 13:00N 48°24' W 069°18'1010.0 260 / 261014.7 -6.4-10.9 3.4
2017-Jan-13 12:00N 48°30' W 069°06'1313.3 270 / 281012.2 -4.9-9.7 2.7
2017-Jan-13 11:00N 48°36' W 068°48'10 9.9 280 / 381008.6 -3.2-6.3 2.4
2017-Jan-13 10:00N 48°42' W 068°36'10 9.9 280 / 131008.2 -2.6-2.7 1.5
2017-Jan-13 09:00N 48°48' W 068°24'1313.3 300 / 151007.6 -3.9-4.1 1.2
2017-Jan-13 08:00N 48°54' W 068°06'1313.3 300 / 181006.8 -4.0-4.0 1.7
2017-Jan-13 07:00N 49°00' W 067°48'10 9.9 310 / 151006.1 -2.7-2.7 1.5
2017-Jan-13 06:00N 49°06' W 067°36'1716.8 320 / 101005.5 -1.4-1.3 1.5
2017-Jan-13 05:00N 49°18' W 067°18'3115.5 360 / 111005.6 -1.3-1.3 2.2
2017-Jan-13 03:00N 49°42' W 066°48'1212.0 340 / 161006.5 -2.3-2.2 1.2
2017-Jan-13 02:00N 49°54' W 066°48'6 6.0 350 / 111007.0 -2.3-2.3 1.1
2017-Jan-13 01:00N 50°00' W 066°48'0 0.0 360 / 31007.9 -1.5-1.5
2017-Jan-13 00:00N 50°00' W 066°48'0 0.0 320 / 21008.5 -0.9-0.9
2017-Jan-12 23:00N 50°00' W 066°48'0 0.0 010 / 41007.9 -0.1-0.2
2017-Jan-12 22:00N 50°00' W 066°48'0 0.0 020 / 31008.0 0.3 0.3
2017-Jan-12 21:00N 50°00' W 066°48'0 0.0 030 / 31007.7 0.7 0.7
2017-Jan-12 20:00N 50°00' W 066°48'0 0.0 320 / 31007.5 0.4 0.5
2017-Jan-12 19:00N 50°00' W 066°48'0 0.0 070 / 41006.7 0.5 0.5
2017-Jan-12 18:00N 50°00' W 066°48'0 0.0 080 / 71006.5 0.7 0.8
2017-Jan-12 17:00N 50°00' W 066°48'0 0.0 080 / 71007.6 1.1 1.1
2017-Jan-12 16:00N 50°00' W 066°48'0 0.0 070 / 61009.1 1.0 1.0
2017-Jan-12 15:00N 50°00' W 066°48'0 0.0 070 / 41010.4 1.3 1.3
2017-Jan-12 14:00N 50°00' W 066°48'0 0.0 070 / 11010.5 1.4 1.2
2017-Jan-12 13:00N 50°00' W 066°48'0 0.0 080 / 31010.2 1.3 0.9
2017-Jan-12 06:00N 50°00' W 066°48'0 0.0 230 / 11011.2 1.0 0.9
2017-Jan-12 05:00N 50°00' W 066°48'0 0.0 260 / 11012.8 1.7 1.5
2017-Jan-12 04:00N 50°00' W 066°48'10 4.9 200 / 171013.9 0.7 0.7 1.1
2017-Jan-12 02:00N 49°54' W 066°36'4 3.9 220 / 171015.7 0.9 0.1 1.4
2017-Jan-12 01:00N 49°54' W 066°30'0 0.0 230 / 281014.4 1.4 0.9 1.7
2017-Jan-12 00:00N 49°54' W 066°30'6 3.0 230 / 231013.8 1.3 1.2 1.9
2017-Jan-11 22:00N 50°00' W 066°30'6 6.0 220 / 311008.8 1.6 1.5 1.4
2017-Jan-11 21:00N 50°06' W 066°30'7 7.1 220 / 301006.8 1.9 1.8 1.4
2017-Jan-11 20:00N 50°00' W 066°36'0 0.0 220 / 321004.4 2.2 2.1 1.3
2017-Jan-11 19:00N 50°00' W 066°36'   220 / 281003.0 2.4 2.3 1.2

Dump ship's entire track history